sensor_id;sensor_type;location;lat;lon;timestamp;temperature;humidity
25871;DHT22;13689;48.590;7.752;2023-04-25T00:00:43;13.20;58.10
25871;DHT22;13689;48.590;7.752;2023-04-25T00:03:08;13.20;57.60
25871;DHT22;13689;48.590;7.752;2023-04-25T00:05:34;13.20;57.60
25871;DHT22;13689;48.590;7.752;2023-04-25T00:08:02;13.10;57.70
25871;DHT22;13689;48.590;7.752;2023-04-25T00:10:28;13.10;57.80
25871;DHT22;13689;48.590;7.752;2023-04-25T00:12:53;13.00;57.80
25871;DHT22;13689;48.590;7.752;2023-04-25T00:15:19;13.10;58.00
25871;DHT22;13689;48.590;7.752;2023-04-25T00:17:45;13.00;58.10
25871;DHT22;13689;48.590;7.752;2023-04-25T00:20:12;13.00;58.10
25871;DHT22;13689;48.590;7.752;2023-04-25T00:22:37;12.90;58.20
25871;DHT22;13689;48.590;7.752;2023-04-25T00:25:06;13.00;58.30
25871;DHT22;13689;48.590;7.752;2023-04-25T00:27:32;13.00;58.30
25871;DHT22;13689;48.590;7.752;2023-04-25T00:29:58;13.00;58.30
25871;DHT22;13689;48.590;7.752;2023-04-25T00:32:24;13.00;58.40
25871;DHT22;13689;48.590;7.752;2023-04-25T00:34:49;13.00;58.30
25871;DHT22;13689;48.590;7.752;2023-04-25T00:37:15;13.10;58.40
25871;DHT22;13689;48.590;7.752;2023-04-25T00:39:41;13.00;58.40
25871;DHT22;13689;48.590;7.752;2023-04-25T00:42:07;13.00;58.70
25871;DHT22;13689;48.590;7.752;2023-04-25T00:44:34;12.90;59.00
25871;DHT22;13689;48.590;7.752;2023-04-25T00:47:01;12.90;59.20
25871;DHT22;13689;48.590;7.752;2023-04-25T00:49:27;12.90;59.40
25871;DHT22;13689;48.590;7.752;2023-04-25T00:51:53;12.90;59.50
25871;DHT22;13689;48.590;7.752;2023-04-25T00:54:20;12.90;59.70
25871;DHT22;13689;48.590;7.752;2023-04-25T00:56:45;12.80;59.80
25871;DHT22;13689;48.590;7.752;2023-04-25T00:59:11;12.80;60.00
25871;DHT22;13689;48.590;7.752;2023-04-25T01:01:38;12.80;60.30
25871;DHT22;13689;48.590;7.752;2023-04-25T01:04:04;12.80;60.50
25871;DHT22;13689;48.590;7.752;2023-04-25T01:06:31;12.80;60.80
25871;DHT22;13689;48.590;7.752;2023-04-25T01:08:57;12.70;61.00
25871;DHT22;13689;48.590;7.752;2023-04-25T01:11:24;12.70;61.20
25871;DHT22;13689;48.590;7.752;2023-04-25T01:13:50;12.70;61.60
25871;DHT22;13689;48.590;7.752;2023-04-25T01:16:16;12.70;61.70
25871;DHT22;13689;48.590;7.752;2023-04-25T01:18:41;12.60;61.90
25871;DHT22;13689;48.590;7.752;2023-04-25T01:21:09;12.60;62.20
25871;DHT22;13689;48.590;7.752;2023-04-25T01:23:35;12.60;62.50
25871;DHT22;13689;48.590;7.752;2023-04-25T01:26:01;12.50;62.70
25871;DHT22;13689;48.590;7.752;2023-04-25T01:28:28;12.50;63.10
25871;DHT22;13689;48.590;7.752;2023-04-25T01:30:54;12.50;63.30
25871;DHT22;13689;48.590;7.752;2023-04-25T01:33:21;12.50;63.40
25871;DHT22;13689;48.590;7.752;2023-04-25T01:35:47;12.50;63.50
25871;DHT22;13689;48.590;7.752;2023-04-25T01:38:14;12.50;63.50
25871;DHT22;13689;48.590;7.752;2023-04-25T01:40:40;12.50;63.70
25871;DHT22;13689;48.590;7.752;2023-04-25T01:43:07;12.50;63.90
25871;DHT22;13689;48.590;7.752;2023-04-25T01:45:37;12.50;64.00
25871;DHT22;13689;48.590;7.752;2023-04-25T01:48:05;12.40;64.00
25871;DHT22;13689;48.590;7.752;2023-04-25T01:50:31;12.30;64.40
25871;DHT22;13689;48.590;7.752;2023-04-25T01:52:56;12.30;64.80
25871;DHT22;13689;48.590;7.752;2023-04-25T01:55:22;12.20;64.80
25871;DHT22;13689;48.590;7.752;2023-04-25T01:57:48;12.20;65.10
25871;DHT22;13689;48.590;7.752;2023-04-25T02:00:14;12.10;65.30
25871;DHT22;13689;48.590;7.752;2023-04-25T02:02:39;12.00;65.40
25871;DHT22;13689;48.590;7.752;2023-04-25T02:05:05;12.00;65.60
25871;DHT22;13689;48.590;7.752;2023-04-25T02:07:32;12.00;65.80
25871;DHT22;13689;48.590;7.752;2023-04-25T02:09:57;12.00;65.90
25871;DHT22;13689;48.590;7.752;2023-04-25T02:12:23;12.00;66.00
25871;DHT22;13689;48.590;7.752;2023-04-25T02:14:51;12.00;66.00
25871;DHT22;13689;48.590;7.752;2023-04-25T02:17:17;12.10;66.10
25871;DHT22;13689;48.590;7.752;2023-04-25T02:19:43;12.00;66.10
25871;DHT22;13689;48.590;7.752;2023-04-25T02:22:09;12.00;66.30
25871;DHT22;13689;48.590;7.752;2023-04-25T02:24:35;12.00;66.30
25871;DHT22;13689;48.590;7.752;2023-04-25T02:27:01;12.10;66.30
25871;DHT22;13689;48.590;7.752;2023-04-25T02:29:27;12.10;66.40
25871;DHT22;13689;48.590;7.752;2023-04-25T02:31:52;12.10;66.40
25871;DHT22;13689;48.590;7.752;2023-04-25T02:34:18;12.10;66.30
25871;DHT22;13689;48.590;7.752;2023-04-25T02:36:43;12.10;66.40
25871;DHT22;13689;48.590;7.752;2023-04-25T02:39:09;12.20;66.50
25871;DHT22;13689;48.590;7.752;2023-04-25T02:41:35;12.20;66.40
25871;DHT22;13689;48.590;7.752;2023-04-25T02:44:01;12.20;66.30
25871;DHT22;13689;48.590;7.752;2023-04-25T02:46:26;12.20;66.40
25871;DHT22;13689;48.590;7.752;2023-04-25T02:48:52;12.30;66.40
25871;DHT22;13689;48.590;7.752;2023-04-25T02:51:17;12.30;66.40
25871;DHT22;13689;48.590;7.752;2023-04-25T02:53:44;12.30;66.40
25871;DHT22;13689;48.590;7.752;2023-04-25T02:56:09;12.30;66.30
25871;DHT22;13689;48.590;7.752;2023-04-25T02:58:35;12.30;66.30
25871;DHT22;13689;48.590;7.752;2023-04-25T03:01:02;12.30;66.20
25871;DHT22;13689;48.590;7.752;2023-04-25T03:03:27;12.20;66.00
25871;DHT22;13689;48.590;7.752;2023-04-25T03:05:53;12.10;66.40
25871;DHT22;13689;48.590;7.752;2023-04-25T03:08:19;12.10;66.70
25871;DHT22;13689;48.590;7.752;2023-04-25T03:10:45;12.10;66.70
25871;DHT22;13689;48.590;7.752;2023-04-25T03:13:11;12.20;66.70
25871;DHT22;13689;48.590;7.752;2023-04-25T03:15:37;12.20;66.60
25871;DHT22;13689;48.590;7.752;2023-04-25T03:18:03;12.20;66.40
25871;DHT22;13689;48.590;7.752;2023-04-25T03:20:29;12.20;66.30
25871;DHT22;13689;48.590;7.752;2023-04-25T03:22:55;12.20;66.30
25871;DHT22;13689;48.590;7.752;2023-04-25T03:25:21;12.30;66.30
25871;DHT22;13689;48.590;7.752;2023-04-25T03:27:47;12.30;66.30
25871;DHT22;13689;48.590;7.752;2023-04-25T03:30:12;12.30;66.30
25871;DHT22;13689;48.590;7.752;2023-04-25T03:32:38;12.30;66.40
25871;DHT22;13689;48.590;7.752;2023-04-25T03:35:04;12.40;66.40
25871;DHT22;13689;48.590;7.752;2023-04-25T03:37:30;12.30;67.10
25871;DHT22;13689;48.590;7.752;2023-04-25T03:39:56;12.30;66.30
25871;DHT22;13689;48.590;7.752;2023-04-25T03:42:21;12.30;66.40
25871;DHT22;13689;48.590;7.752;2023-04-25T03:44:48;12.30;66.40
25871;DHT22;13689;48.590;7.752;2023-04-25T03:47:14;12.30;66.40
25871;DHT22;13689;48.590;7.752;2023-04-25T03:49:41;12.20;66.30
25871;DHT22;13689;48.590;7.752;2023-04-25T03:52:07;12.00;66.60
25871;DHT22;13689;48.590;7.752;2023-04-25T03:54:32;12.00;67.00
25871;DHT22;13689;48.590;7.752;2023-04-25T03:56:58;12.00;67.20
25871;DHT22;13689;48.590;7.752;2023-04-25T03:59:24;12.00;67.20
25871;DHT22;13689;48.590;7.752;2023-04-25T04:01:50;12.10;67.30
25871;DHT22;13689;48.590;7.752;2023-04-25T04:04:16;12.10;67.30
25871;DHT22;13689;48.590;7.752;2023-04-25T04:06:41;12.10;67.20
25871;DHT22;13689;48.590;7.752;2023-04-25T04:09:07;12.20;67.30
25871;DHT22;13689;48.590;7.752;2023-04-25T04:11:39;12.20;67.30
25871;DHT22;13689;48.590;7.752;2023-04-25T04:14:06;12.20;67.30
25871;DHT22;13689;48.590;7.752;2023-04-25T04:16:31;12.30;67.40
25871;DHT22;13689;48.590;7.752;2023-04-25T04:18:57;12.20;67.30
25871;DHT22;13689;48.590;7.752;2023-04-25T04:21:23;12.20;67.30
25871;DHT22;13689;48.590;7.752;2023-04-25T04:23:48;12.20;67.40
25871;DHT22;13689;48.590;7.752;2023-04-25T04:26:14;12.20;67.50
25871;DHT22;13689;48.590;7.752;2023-04-25T04:28:42;12.30;67.60
25871;DHT22;13689;48.590;7.752;2023-04-25T04:31:09;12.30;67.60
25871;DHT22;13689;48.590;7.752;2023-04-25T04:33:35;12.30;67.50
25871;DHT22;13689;48.590;7.752;2023-04-25T04:36:02;12.20;67.50
25871;DHT22;13689;48.590;7.752;2023-04-25T04:38:28;12.20;67.70
25871;DHT22;13689;48.590;7.752;2023-04-25T04:40:54;12.20;67.70
25871;DHT22;13689;48.590;7.752;2023-04-25T04:43:20;12.30;67.60
25871;DHT22;13689;48.590;7.752;2023-04-25T04:45:45;12.30;67.50
25871;DHT22;13689;48.590;7.752;2023-04-25T04:48:11;12.30;67.40
25871;DHT22;13689;48.590;7.752;2023-04-25T04:50:39;12.30;67.50
25871;DHT22;13689;48.590;7.752;2023-04-25T04:53:05;12.30;67.40
25871;DHT22;13689;48.590;7.752;2023-04-25T04:55:31;12.30;67.30
25871;DHT22;13689;48.590;7.752;2023-04-25T04:57:56;12.30;67.30
25871;DHT22;13689;48.590;7.752;2023-04-25T05:00:22;12.30;67.30
25871;DHT22;13689;48.590;7.752;2023-04-25T05:02:48;12.30;67.30
25871;DHT22;13689;48.590;7.752;2023-04-25T05:05:13;12.30;67.40
25871;DHT22;13689;48.590;7.752;2023-04-25T05:07:39;12.30;67.40
25871;DHT22;13689;48.590;7.752;2023-04-25T05:10:06;12.20;67.60
25871;DHT22;13689;48.590;7.752;2023-04-25T05:12:32;12.20;67.80
25871;DHT22;13689;48.590;7.752;2023-04-25T05:14:57;12.20;68.00
25871;DHT22;13689;48.590;7.752;2023-04-25T05:17:23;12.10;68.00
25871;DHT22;13689;48.590;7.752;2023-04-25T05:19:48;12.00;68.20
25871;DHT22;13689;48.590;7.752;2023-04-25T05:22:14;12.00;68.60
25871;DHT22;13689;48.590;7.752;2023-04-25T05:24:39;12.00;68.80
25871;DHT22;13689;48.590;7.752;2023-04-25T05:27:05;12.00;68.90
25871;DHT22;13689;48.590;7.752;2023-04-25T05:29:31;12.00;69.00
25871;DHT22;13689;48.590;7.752;2023-04-25T05:31:56;12.00;69.20
25871;DHT22;13689;48.590;7.752;2023-04-25T05:34:22;12.00;69.40
25871;DHT22;13689;48.590;7.752;2023-04-25T05:36:47;12.00;69.80
25871;DHT22;13689;48.590;7.752;2023-04-25T05:39:15;11.90;70.30
25871;DHT22;13689;48.590;7.752;2023-04-25T05:41:42;11.90;70.90
25871;DHT22;13689;48.590;7.752;2023-04-25T05:44:07;11.80;71.30
25871;DHT22;13689;48.590;7.752;2023-04-25T05:46:33;11.80;71.50
25871;DHT22;13689;48.590;7.752;2023-04-25T05:48:58;11.70;72.00
25871;DHT22;13689;48.590;7.752;2023-04-25T05:51:24;11.60;72.30
25871;DHT22;13689;48.590;7.752;2023-04-25T05:53:49;11.50;72.80
25871;DHT22;13689;48.590;7.752;2023-04-25T05:56:15;11.50;73.30
25871;DHT22;13689;48.590;7.752;2023-04-25T05:58:41;11.40;73.70
25871;DHT22;13689;48.590;7.752;2023-04-25T06:01:06;11.30;74.00
25871;DHT22;13689;48.590;7.752;2023-04-25T06:03:32;11.30;74.50
25871;DHT22;13689;48.590;7.752;2023-04-25T06:05:57;11.20;74.80
25871;DHT22;13689;48.590;7.752;2023-04-25T06:08:23;11.10;75.10
25871;DHT22;13689;48.590;7.752;2023-04-25T06:10:48;11.10;75.40
25871;DHT22;13689;48.590;7.752;2023-04-25T06:13:14;11.10;75.90
25871;DHT22;13689;48.590;7.752;2023-04-25T06:15:40;11.00;76.20
25871;DHT22;13689;48.590;7.752;2023-04-25T06:18:06;11.00;76.50
25871;DHT22;13689;48.590;7.752;2023-04-25T06:20:32;10.90;76.70
25871;DHT22;13689;48.590;7.752;2023-04-25T06:22:58;10.90;77.10
25871;DHT22;13689;48.590;7.752;2023-04-25T06:25:23;10.90;77.50
25871;DHT22;13689;48.590;7.752;2023-04-25T06:27:49;10.80;78.50
25871;DHT22;13689;48.590;7.752;2023-04-25T06:30:15;10.80;78.00
25871;DHT22;13689;48.590;7.752;2023-04-25T06:32:41;10.80;78.00
25871;DHT22;13689;48.590;7.752;2023-04-25T06:35:07;10.70;78.20
25871;DHT22;13689;48.590;7.752;2023-04-25T06:37:33;10.70;78.50
25871;DHT22;13689;48.590;7.752;2023-04-25T06:39:58;10.70;78.60
25871;DHT22;13689;48.590;7.752;2023-04-25T06:42:24;10.60;78.60
25871;DHT22;13689;48.590;7.752;2023-04-25T06:44:50;10.60;78.80
25871;DHT22;13689;48.590;7.752;2023-04-25T06:47:15;10.50;78.70
25871;DHT22;13689;48.590;7.752;2023-04-25T06:49:41;10.50;78.80
25871;DHT22;13689;48.590;7.752;2023-04-25T06:52:07;10.50;79.00
25871;DHT22;13689;48.590;7.752;2023-04-25T06:54:33;10.40;79.10
25871;DHT22;13689;48.590;7.752;2023-04-25T06:56:59;10.40;79.40
25871;DHT22;13689;48.590;7.752;2023-04-25T06:59:26;10.30;79.40
25871;DHT22;13689;48.590;7.752;2023-04-25T07:01:51;10.30;79.60
25871;DHT22;13689;48.590;7.752;2023-04-25T07:04:17;10.30;79.70
25871;DHT22;13689;48.590;7.752;2023-04-25T07:06:43;10.30;79.90
25871;DHT22;13689;48.590;7.752;2023-04-25T07:09:09;10.30;80.00
25871;DHT22;13689;48.590;7.752;2023-04-25T07:11:37;10.30;80.30
25871;DHT22;13689;48.590;7.752;2023-04-25T07:14:03;10.40;80.20
25871;DHT22;13689;48.590;7.752;2023-04-25T07:16:29;10.30;79.90
25871;DHT22;13689;48.590;7.752;2023-04-25T07:18:54;10.40;80.20
25871;DHT22;13689;48.590;7.752;2023-04-25T07:21:20;10.40;80.20
25871;DHT22;13689;48.590;7.752;2023-04-25T07:23:46;10.40;80.20
25871;DHT22;13689;48.590;7.752;2023-04-25T07:26:12;10.40;80.20
25871;DHT22;13689;48.590;7.752;2023-04-25T07:28:37;10.40;80.30
25871;DHT22;13689;48.590;7.752;2023-04-25T07:31:03;10.50;80.10
25871;DHT22;13689;48.590;7.752;2023-04-25T07:33:29;10.50;80.30
25871;DHT22;13689;48.590;7.752;2023-04-25T07:35:55;10.50;80.20
25871;DHT22;13689;48.590;7.752;2023-04-25T07:38:21;10.50;79.90
25871;DHT22;13689;48.590;7.752;2023-04-25T07:40:48;10.50;80.00
25871;DHT22;13689;48.590;7.752;2023-04-25T07:43:13;10.40;80.00
25871;DHT22;13689;48.590;7.752;2023-04-25T07:45:42;10.40;80.20
25871;DHT22;13689;48.590;7.752;2023-04-25T07:48:08;10.40;80.30
25871;DHT22;13689;48.590;7.752;2023-04-25T07:50:33;10.40;80.30
25871;DHT22;13689;48.590;7.752;2023-04-25T07:52:59;10.40;80.50
25871;DHT22;13689;48.590;7.752;2023-04-25T07:55:25;10.40;80.40
25871;DHT22;13689;48.590;7.752;2023-04-25T07:57:51;10.40;80.40
25871;DHT22;13689;48.590;7.752;2023-04-25T08:00:17;10.40;80.40
25871;DHT22;13689;48.590;7.752;2023-04-25T08:02:43;10.40;80.50
25871;DHT22;13689;48.590;7.752;2023-04-25T08:05:08;10.40;80.30
25871;DHT22;13689;48.590;7.752;2023-04-25T08:07:37;10.40;80.50
25871;DHT22;13689;48.590;7.752;2023-04-25T08:10:05;10.50;80.80
25871;DHT22;13689;48.590;7.752;2023-04-25T08:12:31;10.50;80.40
25871;DHT22;13689;48.590;7.752;2023-04-25T08:14:56;10.50;80.40
25871;DHT22;13689;48.590;7.752;2023-04-25T08:17:22;10.60;80.60
25871;DHT22;13689;48.590;7.752;2023-04-25T08:19:48;10.60;80.80
25871;DHT22;13689;48.590;7.752;2023-04-25T08:22:13;10.70;80.50
25871;DHT22;13689;48.590;7.752;2023-04-25T08:24:40;10.80;80.30
25871;DHT22;13689;48.590;7.752;2023-04-25T08:27:06;10.80;80.40
25871;DHT22;13689;48.590;7.752;2023-04-25T08:29:33;10.90;80.10
25871;DHT22;13689;48.590;7.752;2023-04-25T08:31:59;10.90;80.00
25871;DHT22;13689;48.590;7.752;2023-04-25T08:34:24;11.00;80.20
25871;DHT22;13689;48.590;7.752;2023-04-25T08:36:51;11.10;79.90
25871;DHT22;13689;48.590;7.752;2023-04-25T08:39:17;11.20;79.80
25871;DHT22;13689;48.590;7.752;2023-04-25T08:41:43;11.20;79.50
25871;DHT22;13689;48.590;7.752;2023-04-25T08:44:11;11.20;79.40
25871;DHT22;13689;48.590;7.752;2023-04-25T08:46:38;11.30;79.00
25871;DHT22;13689;48.590;7.752;2023-04-25T08:49:07;11.30;79.20
25871;DHT22;13689;48.590;7.752;2023-04-25T08:51:36;11.30;79.00
25871;DHT22;13689;48.590;7.752;2023-04-25T08:54:14;11.30;78.70
25871;DHT22;13689;48.590;7.752;2023-04-25T08:56:43;11.30;78.80
25871;DHT22;13689;48.590;7.752;2023-04-25T08:59:10;11.30;78.80
25871;DHT22;13689;48.590;7.752;2023-04-25T09:01:36;11.30;78.60
25871;DHT22;13689;48.590;7.752;2023-04-25T09:04:02;11.20;78.80
25871;DHT22;13689;48.590;7.752;2023-04-25T09:06:29;11.10;79.30
25871;DHT22;13689;48.590;7.752;2023-04-25T09:09:01;11.00;79.50
25871;DHT22;13689;48.590;7.752;2023-04-25T09:11:27;11.00;79.70
25871;DHT22;13689;48.590;7.752;2023-04-25T09:14:27;11.00;79.60
25871;DHT22;13689;48.590;7.752;2023-04-25T09:21:58;11.20;79.10
25871;DHT22;13689;48.590;7.752;2023-04-25T09:24:50;11.20;79.20
25871;DHT22;13689;48.590;7.752;2023-04-25T09:27:20;11.20;79.40
25871;DHT22;13689;48.590;7.752;2023-04-25T09:29:57;11.30;79.40
25871;DHT22;13689;48.590;7.752;2023-04-25T09:32:23;11.30;79.10
25871;DHT22;13689;48.590;7.752;2023-04-25T09:34:51;11.30;79.10
25871;DHT22;13689;48.590;7.752;2023-04-25T09:37:21;11.30;79.10
25871;DHT22;13689;48.590;7.752;2023-04-25T09:39:48;11.30;79.00
25871;DHT22;13689;48.590;7.752;2023-04-25T09:42:15;11.30;79.30
25871;DHT22;13689;48.590;7.752;2023-04-25T09:44:43;11.40;79.40
25871;DHT22;13689;48.590;7.752;2023-04-25T09:47:11;11.50;79.20
25871;DHT22;13689;48.590;7.752;2023-04-25T09:49:39;11.50;78.40
25871;DHT22;13689;48.590;7.752;2023-04-25T09:52:06;11.50;78.80
25871;DHT22;13689;48.590;7.752;2023-04-25T09:54:31;11.50;78.60
25871;DHT22;13689;48.590;7.752;2023-04-25T09:57:10;11.50;78.30
25871;DHT22;13689;48.590;7.752;2023-04-25T09:59:39;11.50;78.60
25871;DHT22;13689;48.590;7.752;2023-04-25T10:02:05;11.50;78.50
25871;DHT22;13689;48.590;7.752;2023-04-25T10:04:34;11.60;78.30
25871;DHT22;13689;48.590;7.752;2023-04-25T10:07:00;11.70;78.30
25871;DHT22;13689;48.590;7.752;2023-04-25T10:09:28;11.80;78.00
25871;DHT22;13689;48.590;7.752;2023-04-25T10:11:59;11.90;77.70
25871;DHT22;13689;48.590;7.752;2023-04-25T10:14:26;12.00;77.50
25871;DHT22;13689;48.590;7.752;2023-04-25T10:16:52;12.20;77.40
25871;DHT22;13689;48.590;7.752;2023-04-25T10:19:22;12.40;77.40
25871;DHT22;13689;48.590;7.752;2023-04-25T10:22:13;12.50;77.10
25871;DHT22;13689;48.590;7.752;2023-04-25T10:24:40;12.70;76.90
25871;DHT22;13689;48.590;7.752;2023-04-25T10:27:06;12.90;76.70
25871;DHT22;13689;48.590;7.752;2023-04-25T10:29:32;13.10;76.40
25871;DHT22;13689;48.590;7.752;2023-04-25T10:31:58;13.30;76.20
25871;DHT22;13689;48.590;7.752;2023-04-25T10:34:25;13.50;75.90
25871;DHT22;13689;48.590;7.752;2023-04-25T10:37:02;13.80;75.50
25871;DHT22;13689;48.590;7.752;2023-04-25T10:39:29;14.00;75.30
25871;DHT22;13689;48.590;7.752;2023-04-25T10:41:58;14.20;74.90
25871;DHT22;13689;48.590;7.752;2023-04-25T10:44:28;14.40;74.30
25871;DHT22;13689;48.590;7.752;2023-04-25T10:46:58;14.70;73.90
25871;DHT22;13689;48.590;7.752;2023-04-25T10:49:33;14.90;73.40
25871;DHT22;13689;48.590;7.752;2023-04-25T10:52:18;15.20;72.80
25871;DHT22;13689;48.590;7.752;2023-04-25T10:54:52;15.50;72.10
25871;DHT22;13689;48.590;7.752;2023-04-25T10:57:27;15.50;70.40
25871;DHT22;13689;48.590;7.752;2023-04-25T10:59:57;15.70;71.10
25871;DHT22;13689;48.590;7.752;2023-04-25T11:02:26;15.40;68.60
25871;DHT22;13689;48.590;7.752;2023-04-25T11:04:53;14.80;70.10
25871;DHT22;13689;48.590;7.752;2023-04-25T11:07:38;14.40;71.50
25871;DHT22;13689;48.590;7.752;2023-04-25T11:10:04;14.00;71.50
25871;DHT22;13689;48.590;7.752;2023-04-25T11:12:33;13.60;72.00
25871;DHT22;13689;48.590;7.752;2023-04-25T11:15:04;13.40;72.50
25871;DHT22;13689;48.590;7.752;2023-04-25T11:17:31;13.60;72.60
25871;DHT22;13689;48.590;7.752;2023-04-25T11:19:56;13.90;72.10
25871;DHT22;13689;48.590;7.752;2023-04-25T11:22:22;14.30;71.30
25871;DHT22;13689;48.590;7.752;2023-04-25T11:24:48;14.70;70.60
25871;DHT22;13689;48.590;7.752;2023-04-25T11:27:14;15.10;69.80
25871;DHT22;13689;48.590;7.752;2023-04-25T11:29:40;15.60;68.80
25871;DHT22;13689;48.590;7.752;2023-04-25T11:32:06;15.90;67.50
25871;DHT22;13689;48.590;7.752;2023-04-25T11:34:33;16.10;67.10
25871;DHT22;13689;48.590;7.752;2023-04-25T11:37:02;16.10;67.00
25871;DHT22;13689;48.590;7.752;2023-04-25T11:39:28;16.20;67.10
25871;DHT22;13689;48.590;7.752;2023-04-25T11:41:54;16.20;67.00
25871;DHT22;13689;48.590;7.752;2023-04-25T11:44:21;16.20;67.10
25871;DHT22;13689;48.590;7.752;2023-04-25T11:46:47;16.10;66.60
25871;DHT22;13689;48.590;7.752;2023-04-25T11:49:13;16.10;66.70
25871;DHT22;13689;48.590;7.752;2023-04-25T11:51:47;15.70;65.20
25871;DHT22;13689;48.590;7.752;2023-04-25T11:54:16;15.20;65.90
25871;DHT22;13689;48.590;7.752;2023-04-25T11:56:45;15.10;66.60
25871;DHT22;13689;48.590;7.752;2023-04-25T11:59:12;15.00;66.60
25871;DHT22;13689;48.590;7.752;2023-04-25T12:01:47;14.90;66.80
25871;DHT22;13689;48.590;7.752;2023-04-25T12:04:18;14.80;67.00
25871;DHT22;13689;48.590;7.752;2023-04-25T12:06:45;14.70;66.70
25871;DHT22;13689;48.590;7.752;2023-04-25T12:09:15;14.60;67.30
25871;DHT22;13689;48.590;7.752;2023-04-25T12:11:56;14.50;67.30
25871;DHT22;13689;48.590;7.752;2023-04-25T12:14:30;14.20;67.40
25871;DHT22;13689;48.590;7.752;2023-04-25T12:17:00;13.90;67.90
25871;DHT22;13689;48.590;7.752;2023-04-25T12:19:35;13.80;68.40
25871;DHT22;13689;48.590;7.752;2023-04-25T12:22:02;13.60;68.80
25871;DHT22;13689;48.590;7.752;2023-04-25T12:24:28;13.30;68.80
25871;DHT22;13689;48.590;7.752;2023-04-25T12:27:05;13.00;69.60
25871;DHT22;13689;48.590;7.752;2023-04-25T12:29:32;12.60;71.00
25871;DHT22;13689;48.590;7.752;2023-04-25T12:31:58;12.30;72.20
25871;DHT22;13689;48.590;7.752;2023-04-25T12:34:25;12.10;73.30
25871;DHT22;13689;48.590;7.752;2023-04-25T12:36:52;11.90;74.20
25871;DHT22;13689;48.590;7.752;2023-04-25T12:39:19;11.70;75.20
25871;DHT22;13689;48.590;7.752;2023-04-25T12:41:45;11.50;75.80
25871;DHT22;13689;48.590;7.752;2023-04-25T12:44:12;11.30;77.40
25871;DHT22;13689;48.590;7.752;2023-04-25T12:46:38;11.00;78.60
25871;DHT22;13689;48.590;7.752;2023-04-25T12:49:04;11.00;80.40
25871;DHT22;13689;48.590;7.752;2023-04-25T12:51:32;11.00;80.50
25871;DHT22;13689;48.590;7.752;2023-04-25T12:53:59;11.10;81.30
25871;DHT22;13689;48.590;7.752;2023-04-25T12:56:29;11.10;81.20
25871;DHT22;13689;48.590;7.752;2023-04-25T12:58:54;11.10;82.10
25871;DHT22;13689;48.590;7.752;2023-04-25T13:01:21;11.10;81.20
25871;DHT22;13689;48.590;7.752;2023-04-25T13:03:47;10.90;81.90
25871;DHT22;13689;48.590;7.752;2023-04-25T13:06:15;10.90;82.30
25871;DHT22;13689;48.590;7.752;2023-04-25T13:08:41;11.00;82.20
25871;DHT22;13689;48.590;7.752;2023-04-25T13:11:07;11.00;82.20
25871;DHT22;13689;48.590;7.752;2023-04-25T13:13:33;11.00;82.00
25871;DHT22;13689;48.590;7.752;2023-04-25T13:16:04;11.30;82.30
25871;DHT22;13689;48.590;7.752;2023-04-25T13:18:31;11.30;82.00
25871;DHT22;13689;48.590;7.752;2023-04-25T13:20:58;11.30;81.40
25871;DHT22;13689;48.590;7.752;2023-04-25T13:23:25;11.40;81.20
25871;DHT22;13689;48.590;7.752;2023-04-25T13:25:51;11.50;80.90
25871;DHT22;13689;48.590;7.752;2023-04-25T13:28:17;11.80;80.70
25871;DHT22;13689;48.590;7.752;2023-04-25T13:30:43;12.00;80.20
25871;DHT22;13689;48.590;7.752;2023-04-25T13:33:08;12.00;79.20
25871;DHT22;13689;48.590;7.752;2023-04-25T13:35:35;12.00;79.90
25871;DHT22;13689;48.590;7.752;2023-04-25T13:38:02;11.70;78.50
25871;DHT22;13689;48.590;7.752;2023-04-25T13:40:27;11.60;79.60
25871;DHT22;13689;48.590;7.752;2023-04-25T13:42:54;11.70;79.80
25871;DHT22;13689;48.590;7.752;2023-04-25T13:45:23;11.60;79.80
25871;DHT22;13689;48.590;7.752;2023-04-25T13:47:49;11.70;81.20
25871;DHT22;13689;48.590;7.752;2023-04-25T13:50:15;11.80;80.80
25871;DHT22;13689;48.590;7.752;2023-04-25T13:52:41;11.90;80.90
25871;DHT22;13689;48.590;7.752;2023-04-25T13:55:08;11.90;80.80
25871;DHT22;13689;48.590;7.752;2023-04-25T13:57:34;12.00;81.00
25871;DHT22;13689;48.590;7.752;2023-04-25T14:00:00;12.00;81.00
25871;DHT22;13689;48.590;7.752;2023-04-25T14:02:34;12.00;80.90
25871;DHT22;13689;48.590;7.752;2023-04-25T14:05:00;11.90;81.10
25871;DHT22;13689;48.590;7.752;2023-04-25T14:07:26;11.90;80.80
25871;DHT22;13689;48.590;7.752;2023-04-25T14:09:51;12.00;80.00
25871;DHT22;13689;48.590;7.752;2023-04-25T14:12:17;12.20;79.50
25871;DHT22;13689;48.590;7.752;2023-04-25T14:14:43;12.30;77.30
25871;DHT22;13689;48.590;7.752;2023-04-25T14:17:08;12.40;77.40
25871;DHT22;13689;48.590;7.752;2023-04-25T14:19:34;12.60;77.10
25871;DHT22;13689;48.590;7.752;2023-04-25T14:22:00;12.70;76.10
25871;DHT22;13689;48.590;7.752;2023-04-25T14:24:26;12.60;74.50
25871;DHT22;13689;48.590;7.752;2023-04-25T14:26:51;12.60;74.20
25871;DHT22;13689;48.590;7.752;2023-04-25T14:29:17;12.70;74.00
25871;DHT22;13689;48.590;7.752;2023-04-25T14:31:43;12.60;73.10
25871;DHT22;13689;48.590;7.752;2023-04-25T14:34:08;12.50;72.10
25871;DHT22;13689;48.590;7.752;2023-04-25T14:36:35;12.30;71.50
25871;DHT22;13689;48.590;7.752;2023-04-25T14:39:01;12.30;71.90
25871;DHT22;13689;48.590;7.752;2023-04-25T14:41:27;12.40;72.10
25871;DHT22;13689;48.590;7.752;2023-04-25T14:43:53;12.60;71.80
25871;DHT22;13689;48.590;7.752;2023-04-25T14:46:19;12.70;71.40
25871;DHT22;13689;48.590;7.752;2023-04-25T14:48:46;12.80;70.70
25871;DHT22;13689;48.590;7.752;2023-04-25T14:51:12;12.90;70.30
25871;DHT22;13689;48.590;7.752;2023-04-25T14:53:37;13.00;70.00
25871;DHT22;13689;48.590;7.752;2023-04-25T14:56:03;13.10;69.80
25871;DHT22;13689;48.590;7.752;2023-04-25T14:58:29;13.20;69.50
25871;DHT22;13689;48.590;7.752;2023-04-25T15:00:55;13.40;69.30
25871;DHT22;13689;48.590;7.752;2023-04-25T15:03:20;13.60;68.90
25871;DHT22;13689;48.590;7.752;2023-04-25T15:05:46;13.80;68.30
25871;DHT22;13689;48.590;7.752;2023-04-25T15:08:12;13.90;67.60
25871;DHT22;13689;48.590;7.752;2023-04-25T15:10:38;13.90;67.80
25871;DHT22;13689;48.590;7.752;2023-04-25T15:13:04;13.70;67.30
25871;DHT22;13689;48.590;7.752;2023-04-25T15:15:30;13.60;67.50
25871;DHT22;13689;48.590;7.752;2023-04-25T15:17:57;13.60;67.80
25871;DHT22;13689;48.590;7.752;2023-04-25T15:20:23;13.70;67.50
25871;DHT22;13689;48.590;7.752;2023-04-25T15:22:49;13.70;67.40
25871;DHT22;13689;48.590;7.752;2023-04-25T15:25:15;13.60;66.60
25871;DHT22;13689;48.590;7.752;2023-04-25T15:27:43;13.50;67.00
25871;DHT22;13689;48.590;7.752;2023-04-25T15:30:12;13.60;67.10
25871;DHT22;13689;48.590;7.752;2023-04-25T15:32:40;13.60;67.00